sensor_id;sensor_type;location;lat;lon;timestamp;pressure;altitude;pressure_sealevel;temperature;humidity
40650;BME280;26342;42.826;23.992;2023-06-26T00:01:28;95103.28;;;19.81;100.00
40650;BME280;26342;42.826;23.992;2023-06-26T00:03:57;95097.75;;;19.77;100.00
40650;BME280;26342;42.826;23.992;2023-06-26T00:06:23;95099.97;;;19.75;100.00
40650;BME280;26342;42.826;23.992;2023-06-26T00:08:50;95087.25;;;19.67;100.00
40650;BME280;26342;42.826;23.992;2023-06-26T00:11:15;95096.94;;;19.77;100.00
40650;BME280;26342;42.826;23.992;2023-06-26T00:13:41;95099.50;;;19.73;100.00
40650;BME280;26342;42.826;23.992;2023-06-26T00:16:07;95100.28;;;19.74;100.00
40650;BME280;26342;42.826;23.992;2023-06-26T00:18:32;95096.78;;;19.73;100.00
40650;BME280;26342;42.826;23.992;2023-06-26T00:20:58;95101.56;;;19.76;100.00
40650;BME280;26342;42.826;23.992;2023-06-26T00:23:23;95090.44;;;19.61;100.00
40650;BME280;26342;42.826;23.992;2023-06-26T00:25:48;95093.28;;;19.73;100.00
40650;BME280;26342;42.826;23.992;2023-06-26T00:28:14;95098.38;;;19.74;100.00
40650;BME280;26342;42.826;23.992;2023-06-26T00:30:39;95090.56;;;19.73;100.00
40650;BME280;26342;42.826;23.992;2023-06-26T00:33:04;95089.94;;;19.76;100.00
40650;BME280;26342;42.826;23.992;2023-06-26T00:35:30;95090.41;;;19.78;100.00
40650;BME280;26342;42.826;23.992;2023-06-26T00:37:55;95089.78;;;19.72;100.00
40650;BME280;26342;42.826;23.992;2023-06-26T00:40:21;95090.09;;;19.71;100.00
40650;BME280;26342;42.826;23.992;2023-06-26T00:42:46;95096.16;;;19.68;100.00
40650;BME280;26342;42.826;23.992;2023-06-26T00:45:12;95092.34;;;19.69;100.00
40650;BME280;26342;42.826;23.992;2023-06-26T00:47:38;95088.53;;;19.70;100.00
40650;BME280;26342;42.826;23.992;2023-06-26T00:50:04;95092.50;;;19.72;100.00
40650;BME280;26342;42.826;23.992;2023-06-26T00:52:30;95079.28;;;19.71;100.00
40650;BME280;26342;42.826;23.992;2023-06-26T00:54:56;95085.94;;;19.73;100.00
40650;BME280;26342;42.826;23.992;2023-06-26T00:57:21;95078.63;;;19.74;100.00
40650;BME280;26342;42.826;23.992;2023-06-26T00:59:48;95074.81;;;19.75;100.00
40650;BME280;26342;42.826;23.992;2023-06-26T01:02:13;95077.81;;;19.73;100.00
40650;BME280;26342;42.826;23.992;2023-06-26T01:04:46;95071.63;;;19.73;100.00
40650;BME280;26342;42.826;23.992;2023-06-26T01:07:13;95080.53;;;19.73;100.00
40650;BME280;26342;42.826;23.992;2023-06-26T01:09:39;95081.19;;;19.70;100.00
40650;BME280;26342;42.826;23.992;2023-06-26T01:12:05;95079.59;;;19.69;100.00
40650;BME280;26342;42.826;23.992;2023-06-26T01:14:30;95077.53;;;19.66;100.00
40650;BME280;26342;42.826;23.992;2023-06-26T01:16:58;95069.72;;;19.65;100.00
40650;BME280;26342;42.826;23.992;2023-06-26T01:19:28;95074.53;;;19.68;100.00
40650;BME280;26342;42.826;23.992;2023-06-26T01:27:30;95078.03;;;19.68;100.00
40650;BME280;26342;42.826;23.992;2023-06-26T01:30:00;95071.03;;;19.67;100.00
40650;BME280;26342;42.826;23.992;2023-06-26T01:32:28;95072.09;;;19.66;100.00
40650;BME280;26342;42.826;23.992;2023-06-26T01:34:54;95063.69;;;19.68;100.00
40650;BME280;26342;42.826;23.992;2023-06-26T01:37:19;95060.19;;;19.67;100.00
40650;BME280;26342;42.826;23.992;2023-06-26T01:39:45;95059.69;;;19.65;100.00
40650;BME280;26342;42.826;23.992;2023-06-26T01:42:10;95072.44;;;19.65;100.00
40650;BME280;26342;42.826;23.992;2023-06-26T01:44:43;95067.22;;;19.60;100.00
40650;BME280;26342;42.826;23.992;2023-06-26T01:47:11;95069.13;;;19.59;100.00
40650;BME280;26342;42.826;23.992;2023-06-26T01:49:51;95064.97;;;19.62;100.00
40650;BME280;26342;42.826;23.992;2023-06-26T01:52:28;95061.00;;;19.59;100.00
40650;BME280;26342;42.826;23.992;2023-06-26T01:55:02;95068.00;;;19.60;100.00
40650;BME280;26342;42.826;23.992;2023-06-26T01:57:30;95062.41;;;19.57;100.00
40650;BME280;26342;42.826;23.992;2023-06-26T01:59:56;95047.75;;;19.49;100.00
40650;BME280;26342;42.826;23.992;2023-06-26T02:02:24;95061.91;;;19.55;100.00
40650;BME280;26342;42.826;23.992;2023-06-26T02:04:51;95064.63;;;19.55;100.00
40650;BME280;26342;42.826;23.992;2023-06-26T02:07:18;95066.22;;;19.56;100.00
40650;BME280;26342;42.826;23.992;2023-06-26T02:09:44;95058.09;;;19.56;100.00
40650;BME280;26342;42.826;23.992;2023-06-26T02:12:10;95059.88;;;19.60;100.00
40650;BME280;26342;42.826;23.992;2023-06-26T02:14:35;95059.38;;;19.58;100.00
40650;BME280;26342;42.826;23.992;2023-06-26T02:17:00;95060.50;;;19.57;100.00
40650;BME280;26342;42.826;23.992;2023-06-26T02:19:26;95048.88;;;19.48;100.00
40650;BME280;26342;42.826;23.992;2023-06-26T02:21:55;95048.88;;;19.48;100.00
40650;BME280;26342;42.826;23.992;2023-06-26T02:24:21;95039.81;;;19.44;100.00
40650;BME280;26342;42.826;23.992;2023-06-26T02:26:46;95046.81;;;19.45;100.00
40650;BME280;26342;42.826;23.992;2023-06-26T02:29:12;95053.50;;;19.47;100.00
40650;BME280;26342;42.826;23.992;2023-06-26T02:31:37;95051.56;;;19.48;100.00
40650;BME280;26342;42.826;23.992;2023-06-26T02:34:03;95047.44;;;19.50;100.00
40650;BME280;26342;42.826;23.992;2023-06-26T02:36:29;95054.94;;;19.53;100.00
40650;BME280;26342;42.826;23.992;2023-06-26T02:38:54;95049.03;;;19.51;100.00
40650;BME280;26342;42.826;23.992;2023-06-26T02:41:20;95046.00;;;19.53;100.00
40650;BME280;26342;42.826;23.992;2023-06-26T02:43:45;95050.13;;;19.50;100.00
40650;BME280;26342;42.826;23.992;2023-06-26T02:46:11;95045.22;;;19.44;100.00
40650;BME280;26342;42.826;23.992;2023-06-26T02:48:36;95033.44;;;19.40;100.00
40650;BME280;26342;42.826;23.992;2023-06-26T02:51:02;95040.13;;;19.42;100.00
40650;BME280;26342;42.826;23.992;2023-06-26T02:53:27;95046.97;;;19.48;100.00
40650;BME280;26342;42.826;23.992;2023-06-26T02:55:53;95047.94;;;19.52;100.00
40650;BME280;26342;42.826;23.992;2023-06-26T02:58:18;95049.19;;;19.46;100.00
40650;BME280;26342;42.826;23.992;2023-06-26T03:00:44;95047.44;;;19.42;100.00
40650;BME280;26342;42.826;23.992;2023-06-26T03:03:09;95043.47;;;19.39;100.00
40650;BME280;26342;42.826;23.992;2023-06-26T03:05:35;95048.75;;;19.36;100.00
40650;BME280;26342;42.826;23.992;2023-06-26T03:08:02;95043.63;;;19.34;100.00
40650;BME280;26342;42.826;23.992;2023-06-26T03:10:28;95052.06;;;19.24;100.00
40650;BME280;26342;42.826;23.992;2023-06-26T03:12:53;95061.63;;;19.21;100.00
40650;BME280;26342;42.826;23.992;2023-06-26T03:15:19;95044.78;;;19.07;100.00
40650;BME280;26342;42.826;23.992;2023-06-26T03:17:44;95054.47;;;19.08;100.00
40650;BME280;26342;42.826;23.992;2023-06-26T03:20:10;95063.56;;;19.12;100.00
40650;BME280;26342;42.826;23.992;2023-06-26T03:22:35;95055.25;;;19.09;100.00
40650;BME280;26342;42.826;23.992;2023-06-26T03:25:02;95051.75;;;19.08;100.00
40650;BME280;26342;42.826;23.992;2023-06-26T03:27:28;95050.00;;;19.04;100.00
40650;BME280;26342;42.826;23.992;2023-06-26T03:29:53;95065.28;;;19.08;100.00
40650;BME280;26342;42.826;23.992;2023-06-26T03:32:18;95052.88;;;19.07;100.00
40650;BME280;26342;42.826;23.992;2023-06-26T03:34:44;95058.94;;;19.13;100.00
40650;BME280;26342;42.826;23.992;2023-06-26T03:37:09;95044.59;;;19.04;100.00
40650;BME280;26342;42.826;23.992;2023-06-26T03:39:35;95062.91;;;19.07;100.00
40650;BME280;26342;42.826;23.992;2023-06-26T03:42:00;95063.38;;;19.09;100.00
40650;BME280;26342;42.826;23.992;2023-06-26T03:44:27;95055.91;;;19.14;100.00
40650;BME280;26342;42.826;23.992;2023-06-26T03:46:52;95065.13;;;19.22;100.00
40650;BME280;26342;42.826;23.992;2023-06-26T03:49:18;95056.84;;;19.18;100.00
40650;BME280;26342;42.826;23.992;2023-06-26T03:51:44;95065.28;;;19.25;100.00
40650;BME280;26342;42.826;23.992;2023-06-26T03:54:10;95055.75;;;19.28;100.00
40650;BME280;26342;42.826;23.992;2023-06-26T03:56:35;95062.09;;;19.32;100.00
40650;BME280;26342;42.826;23.992;2023-06-26T03:59:00;95065.78;;;19.36;100.00
40650;BME280;26342;42.826;23.992;2023-06-26T04:01:26;95047.63;;;19.28;100.00
40650;BME280;26342;42.826;23.992;2023-06-26T04:03:51;95053.03;;;19.37;100.00
40650;BME280;26342;42.826;23.992;2023-06-26T04:06:17;95058.91;;;19.39;100.00
40650;BME280;26342;42.826;23.992;2023-06-26T04:08:43;95057.78;;;19.40;100.00
40650;BME280;26342;42.826;23.992;2023-06-26T04:11:08;95050.47;;;19.40;100.00
40650;BME280;26342;42.826;23.992;2023-06-26T04:13:33;95051.72;;;19.43;100.00
40650;BME280;26342;42.826;23.992;2023-06-26T04:15:59;95049.34;;;19.41;100.00
40650;BME280;26342;42.826;23.992;2023-06-26T04:18:24;95054.44;;;19.43;100.00
40650;BME280;26342;42.826;23.992;2023-06-26T04:21:10;95054.16;;;19.44;100.00
40650;BME280;26342;42.826;23.992;2023-06-26T04:23:40;95066.56;;;19.45;100.00
40650;BME280;26342;42.826;23.992;2023-06-26T04:26:06;95068.28;;;19.41;100.00
40650;BME280;26342;42.826;23.992;2023-06-26T04:28:33;95069.25;;;19.45;100.00
40650;BME280;26342;42.826;23.992;2023-06-26T04:30:59;95066.88;;;19.44;100.00
40650;BME280;26342;42.826;23.992;2023-06-26T04:33:25;95075.94;;;19.48;100.00
40650;BME280;26342;42.826;23.992;2023-06-26T04:35:51;95074.81;;;19.49;100.00
40650;BME280;26342;42.826;23.992;2023-06-26T04:38:18;95081.66;;;19.46;100.00
40650;BME280;26342;42.826;23.992;2023-06-26T04:40:43;95074.81;;;19.49;100.00
40650;BME280;26342;42.826;23.992;2023-06-26T04:43:09;95074.50;;;19.50;100.00
40650;BME280;26342;42.826;23.992;2023-06-26T04:45:35;95074.81;;;19.49;100.00
40650;BME280;26342;42.826;23.992;2023-06-26T04:48:00;95071.16;;;19.53;100.00
40650;BME280;26342;42.826;23.992;2023-06-26T04:50:26;95068.91;;;19.56;100.00
40650;BME280;26342;42.826;23.992;2023-06-26T04:52:54;95080.06;;;19.54;100.00
40650;BME280;26342;42.826;23.992;2023-06-26T04:55:20;95063.38;;;19.43;100.00
40650;BME280;26342;42.826;23.992;2023-06-26T04:57:47;95078.34;;;19.58;100.00
40650;BME280;26342;42.826;23.992;2023-06-26T05:00:13;95081.66;;;19.55;100.00
40650;BME280;26342;42.826;23.992;2023-06-26T05:02:39;95079.28;;;19.53;100.00
40650;BME280;26342;42.826;23.992;2023-06-26T05:05:04;95070.38;;;19.44;100.00
40650;BME280;26342;42.826;23.992;2023-06-26T05:07:30;95084.06;;;19.48;100.00
40650;BME280;26342;42.826;23.992;2023-06-26T05:09:55;95080.56;;;19.47;100.00
40650;BME280;26342;42.826;23.992;2023-06-26T05:12:21;95095.03;;;19.51;100.00
40650;BME280;26342;42.826;23.992;2023-06-26T05:14:46;95092.47;;;19.55;100.00
40650;BME280;26342;42.826;23.992;2023-06-26T05:17:14;95100.59;;;19.55;100.00
40650;BME280;26342;42.826;23.992;2023-06-26T05:19:40;95101.91;;;19.58;100.00
40650;BME280;26342;42.826;23.992;2023-06-26T05:22:06;95087.56;;;19.57;100.00
40650;BME280;26342;42.826;23.992;2023-06-26T05:24:37;95099.69;;;19.60;100.00
40650;BME280;26342;42.826;23.992;2023-06-26T05:27:03;95105.72;;;19.65;100.00
40650;BME280;26342;42.826;23.992;2023-06-26T05:29:32;95107.78;;;19.68;100.00
40650;BME280;26342;42.826;23.992;2023-06-26T05:31:58;95101.88;;;19.66;100.00
40650;BME280;26342;42.826;23.992;2023-06-26T05:34:25;95107.28;;;19.66;100.00
40650;BME280;26342;42.826;23.992;2023-06-26T05:36:57;95114.63;;;19.66;100.00
40650;BME280;26342;42.826;23.992;2023-06-26T05:39:23;95109.72;;;19.59;100.00
40650;BME280;26342;42.826;23.992;2023-06-26T05:41:50;95114.31;;;19.59;100.00
40650;BME280;26342;42.826;23.992;2023-06-26T05:44:15;95107.16;;;19.63;100.00
40650;BME280;26342;42.826;23.992;2023-06-26T05:46:41;95119.44;;;19.60;100.00
40650;BME280;26342;42.826;23.992;2023-06-26T05:49:06;95103.47;;;19.50;100.00
40650;BME280;26342;42.826;23.992;2023-06-26T05:51:32;95107.59;;;19.47;100.00
40650;BME280;26342;42.826;23.992;2023-06-26T05:53:57;95107.94;;;19.46;100.00
40650;BME280;26342;42.826;23.992;2023-06-26T05:56:23;95112.22;;;19.47;100.00
40650;BME280;26342;42.826;23.992;2023-06-26T05:58:49;95119.41;;;19.51;100.00
40650;BME280;26342;42.826;23.992;2023-06-26T06:01:15;95109.69;;;19.42;100.00
40650;BME280;26342;42.826;23.992;2023-06-26T06:03:41;95120.19;;;19.43;100.00
40650;BME280;26342;42.826;23.992;2023-06-26T06:06:06;95110.47;;;19.42;100.00
40650;BME280;26342;42.826;23.992;2023-06-26T06:08:32;95110.66;;;19.37;100.00
40650;BME280;26342;42.826;23.992;2023-06-26T06:10:59;95123.69;;;19.35;100.00
40650;BME280;26342;42.826;23.992;2023-06-26T06:13:24;95124.50;;;19.36;100.00
40650;BME280;26342;42.826;23.992;2023-06-26T06:15:50;95114.16;;;19.29;100.00
40650;BME280;26342;42.826;23.992;2023-06-26T06:18:15;95121.78;;;19.36;100.00
40650;BME280;26342;42.826;23.992;2023-06-26T06:20:40;95116.38;;;19.36;100.00
40650;BME280;26342;42.826;23.992;2023-06-26T06:23:06;95114.94;;;19.30;100.00
40650;BME280;26342;42.826;23.992;2023-06-26T06:25:31;95121.78;;;19.36;100.00
40650;BME280;26342;42.826;23.992;2023-06-26T06:27:57;95108.56;;;19.25;100.00
40650;BME280;26342;42.826;23.992;2023-06-26T06:30:22;95102.69;;;19.32;100.00
40650;BME280;26342;42.826;23.992;2023-06-26T06:32:48;95114.78;;;19.43;100.00
40650;BME280;26342;42.826;23.992;2023-06-26T06:35:20;95105.38;;;19.41;100.00
40650;BME280;26342;42.826;23.992;2023-06-26T06:37:46;95107.94;;;19.46;100.00
40650;BME280;26342;42.826;23.992;2023-06-26T06:40:12;95103.66;;;19.45;100.00
40650;BME280;26342;42.826;23.992;2023-06-26T06:42:37;95110.81;;;19.58;100.00
40650;BME280;26342;42.826;23.992;2023-06-26T06:45:03;95114.47;;;19.53;100.00
40650;BME280;26342;42.826;23.992;2023-06-26T06:47:29;95114.00;;;19.60;100.00
40650;BME280;26342;42.826;23.992;2023-06-26T06:49:54;95103.19;;;19.60;100.00
40650;BME280;26342;42.826;23.992;2023-06-26T06:52:20;95120.03;;;19.66;100.00
40650;BME280;26342;42.826;23.992;2023-06-26T06:54:53;95109.38;;;19.69;100.00
40650;BME280;26342;42.826;23.992;2023-06-26T06:57:19;95109.84;;;19.71;100.00
40650;BME280;26342;42.826;23.992;2023-06-26T06:59:45;95099.66;;;19.77;100.00
40650;BME280;26342;42.826;23.992;2023-06-26T07:02:13;95093.78;;;19.75;100.00
40650;BME280;26342;42.826;23.992;2023-06-26T07:04:38;95105.97;;;19.90;100.00
40650;BME280;26342;42.826;23.992;2023-06-26T07:07:04;95100.09;;;19.88;100.00
40650;BME280;26342;42.826;23.992;2023-06-26T07:09:29;95105.81;;;19.95;100.00
40650;BME280;26342;42.826;23.992;2023-06-26T07:11:54;95108.19;;;19.96;100.00
40650;BME280;26342;42.826;23.992;2023-06-26T07:14:20;95109.50;;;19.99;100.00
40650;BME280;26342;42.826;23.992;2023-06-26T07:16:45;95117.09;;;20.05;100.00
40650;BME280;26342;42.826;23.992;2023-06-26T07:19:10;95121.09;;;20.08;100.00
40650;BME280;26342;42.826;23.992;2023-06-26T07:21:36;95111.06;;;20.08;100.00
40650;BME280;26342;42.826;23.992;2023-06-26T07:24:01;95112.59;;;20.27;100.00
40650;BME280;26342;42.826;23.992;2023-06-26T07:26:27;95115.09;;;20.49;100.00
40650;BME280;26342;42.826;23.992;2023-06-26T07:28:52;95113.81;;;20.47;100.00
40650;BME280;26342;42.826;23.992;2023-06-26T07:31:18;95111.13;;;20.47;100.00
40650;BME280;26342;42.826;23.992;2023-06-26T07:33:43;95116.66;;;20.50;100.00
40650;BME280;26342;42.826;23.992;2023-06-26T07:36:09;95107.06;;;20.53;100.00
40650;BME280;26342;42.826;23.992;2023-06-26T07:38:34;95112.31;;;20.58;100.00
40650;BME280;26342;42.826;23.992;2023-06-26T07:40:59;95113.59;;;20.60;100.00
40650;BME280;26342;42.826;23.992;2023-06-26T07:43:25;95120.38;;;20.75;100.00
40650;BME280;26342;42.826;23.992;2023-06-26T07:45:50;95116.81;;;20.83;100.00
40650;BME280;26342;42.826;23.992;2023-06-26T07:48:16;95123.31;;;20.91;100.00
40650;BME280;26342;42.826;23.992;2023-06-26T07:50:42;95119.63;;;20.96;100.00
40650;BME280;26342;42.826;23.992;2023-06-26T07:53:08;95134.94;;;20.91;100.00
40650;BME280;26342;42.826;23.992;2023-06-26T07:55:33;95134.16;;;20.91;100.00
40650;BME280;26342;42.826;23.992;2023-06-26T07:57:59;95138.84;;;20.82;100.00
40650;BME280;26342;42.826;23.992;2023-06-26T08:00:26;95133.53;;;20.94;100.00
40650;BME280;26342;42.826;23.992;2023-06-26T08:02:52;95138.28;;;20.97;100.00
40650;BME280;26342;42.826;23.992;2023-06-26T08:05:17;95135.97;;;21.08;100.00
40650;BME280;26342;42.826;23.992;2023-06-26T08:07:43;95140.59;;;21.07;100.00
40650;BME280;26342;42.826;23.992;2023-06-26T08:10:08;95135.47;;;21.14;100.00
40650;BME280;26342;42.826;23.992;2023-06-26T08:12:34;95124.88;;;21.22;100.00
40650;BME280;26342;42.826;23.992;2023-06-26T08:15:01;95133.34;;;21.20;100.00
40650;BME280;26342;42.826;23.992;2023-06-26T08:17:28;95129.19;;;21.23;100.00
40650;BME280;26342;42.826;23.992;2023-06-26T08:19:53;95128.78;;;21.12;100.00
40650;BME280;26342;42.826;23.992;2023-06-26T08:22:18;95122.22;;;21.13;100.00
40650;BME280;26342;42.826;23.992;2023-06-26T08:24:44;95135.06;;;21.25;100.00
40650;BME280;26342;42.826;23.992;2023-06-26T08:27:09;95134.00;;;21.17;100.00
40650;BME280;26342;42.826;23.992;2023-06-26T08:29:35;95136.41;;;21.18;100.00
40650;BME280;26342;42.826;23.992;2023-06-26T08:32:00;95126.75;;;21.30;100.00
40650;BME280;26342;42.826;23.992;2023-06-26T08:34:27;95128.53;;;21.46;100.00
40650;BME280;26342;42.826;23.992;2023-06-26T08:36:52;95128.81;;;21.54;100.00
40650;BME280;26342;42.826;23.992;2023-06-26T08:39:18;95131.88;;;21.52;100.00
40650;BME280;26342;42.826;23.992;2023-06-26T08:41:44;95127.69;;;21.55;100.00
40650;BME280;26342;42.826;23.992;2023-06-26T08:44:09;95125.03;;;21.67;100.00
40650;BME280;26342;42.826;23.992;2023-06-26T08:46:36;95123.13;;;21.67;100.00
40650;BME280;26342;42.826;23.992;2023-06-26T08:49:28;95133.03;;;21.84;100.00
40650;BME280;26342;42.826;23.992;2023-06-26T08:52:24;95123.38;;;21.74;100.00
40650;BME280;26342;42.826;23.992;2023-06-26T08:54:58;95119.50;;;21.96;100.00
40650;BME280;26342;42.826;23.992;2023-06-26T08:57:25;95114.84;;;22.30;100.00
40650;BME280;26342;42.826;23.992;2023-06-26T08:59:52;95121.16;;;22.22;100.00
40650;BME280;26342;42.826;23.992;2023-06-26T09:02:17;95113.63;;;22.07;100.00
40650;BME280;26342;42.826;23.992;2023-06-26T09:04:43;95115.84;;;22.13;100.00
40650;BME280;26342;42.826;23.992;2023-06-26T09:07:08;95106.94;;;22.04;100.00
40650;BME280;26342;42.826;23.992;2023-06-26T09:09:35;95116.03;;;22.08;100.00
40650;BME280;26342;42.826;23.992;2023-06-26T09:12:03;95114.47;;;22.19;100.00
40650;BME280;26342;42.826;23.992;2023-06-26T09:14:29;95108.75;;;22.57;100.00
40650;BME280;26342;42.826;23.992;2023-06-26T09:16:55;95103.66;;;22.68;100.00
40650;BME280;26342;42.826;23.992;2023-06-26T09:19:21;95111.03;;;22.68;100.00
40650;BME280;26342;42.826;23.992;2023-06-26T09:21:49;95108.53;;;22.63;100.00
40650;BME280;26342;42.826;23.992;2023-06-26T09:24:15;95118.97;;;22.61;100.00
40650;BME280;26342;42.826;23.992;2023-06-26T09:26:41;95109.44;;;22.54;100.00
40650;BME280;26342;42.826;23.992;2023-06-26T09:29:07;95112.72;;;22.48;100.00
40650;BME280;26342;42.826;23.992;2023-06-26T09:31:33;95109.78;;;22.65;100.00
40650;BME280;26342;42.826;23.992;2023-06-26T09:34:01;95100.16;;;22.92;100.00
40650;BME280;26342;42.826;23.992;2023-06-26T09:36:28;95112.13;;;23.28;100.00
40650;BME280;26342;42.826;23.992;2023-06-26T09:39:00;95103.88;;;23.52;100.00
40650;BME280;26342;42.826;23.992;2023-06-26T09:41:26;95109.69;;;23.63;100.00
40650;BME280;26342;42.826;23.992;2023-06-26T09:43:52;95107.75;;;23.51;100.00
40650;BME280;26342;42.826;23.992;2023-06-26T09:46:24;95097.78;;;23.43;100.00
40650;BME280;26342;42.826;23.992;2023-06-26T09:51:35;95109.97;;;23.33;100.00
40650;BME280;26342;42.826;23.992;2023-06-26T09:54:01;95106.59;;;23.24;100.00
40650;BME280;26342;42.826;23.992;2023-06-26T09:56:28;95110.31;;;23.20;100.00
40650;BME280;26342;42.826;23.992;2023-06-26T09:58:59;95107.25;;;23.21;100.00
40650;BME280;26342;42.826;23.992;2023-06-26T10:01:27;95118.63;;;23.23;100.00
40650;BME280;26342;42.826;23.992;2023-06-26T10:03:53;95115.41;;;23.21;100.00
40650;BME280;26342;42.826;23.992;2023-06-26T10:06:24;95116.56;;;23.20;100.00
40650;BME280;26342;42.826;23.992;2023-06-26T10:08:52;95113.84;;;23.20;100.00
40650;BME280;26342;42.826;23.992;2023-06-26T10:11:21;95104.91;;;23.07;100.00
40650;BME280;26342;42.826;23.992;2023-06-26T10:13:50;95110.22;;;23.04;100.00
40650;BME280;26342;42.826;23.992;2023-06-26T10:16:23;95115.34;;;22.93;100.00
40650;BME280;26342;42.826;23.992;2023-06-26T10:18:53;95119.09;;;22.76;100.00
40650;BME280;26342;42.826;23.992;2023-06-26T10:21:22;95113.41;;;22.69;100.00
40650;BME280;26342;42.826;23.992;2023-06-26T10:23:49;95114.56;;;22.68;100.00
40650;BME280;26342;42.826;23.992;2023-06-26T10:26:17;95114.88;;;22.67;100.00
40650;BME280;26342;42.826;23.992;2023-06-26T10:28:46;95115.56;;;22.76;100.00
40650;BME280;26342;42.826;23.992;2023-06-26T10:31:18;95104.91;;;22.83;100.00
40650;BME280;26342;42.826;23.992;2023-06-26T10:33:45;95102.91;;;22.92;100.00
40650;BME280;26342;42.826;23.992;2023-06-26T10:36:15;95098.22;;;23.05;100.00
40650;BME280;26342;42.826;23.992;2023-06-26T10:41:19;95087.88;;;23.23;100.00
40650;BME280;26342;42.826;23.992;2023-06-26T10:43:49;95087.25;;;23.42;100.00
40650;BME280;26342;42.826;23.992;2023-06-26T10:46:18;95076.84;;;23.59;100.00
40650;BME280;26342;42.826;23.992;2023-06-26T10:49:05;95082.34;;;23.87;100.00
40650;BME280;26342;42.826;23.992;2023-06-26T10:51:31;95079.81;;;23.94;100.00
40650;BME280;26342;42.826;23.992;2023-06-26T10:53:57;95069.78;;;23.99;100.00
40650;BME280;26342;42.826;23.992;2023-06-26T10:59:39;95065.13;;;24.15;100.00
40650;BME280;26342;42.826;23.992;2023-06-26T11:02:05;95058.03;;;24.26;100.00
40650;BME280;26342;42.826;23.992;2023-06-26T11:15:12;95073.41;;;24.18;100.00
40650;BME280;26342;42.826;23.992;2023-06-26T11:17:38;95073.75;;;24.17;100.00
40650;BME280;26342;42.826;23.992;2023-06-26T11:20:09;95077.91;;;24.11;100.00
40650;BME280;26342;42.826;23.992;2023-06-26T11:22:37;95086.72;;;23.92;100.00
40650;BME280;26342;42.826;23.992;2023-06-26T11:25:03;95075.34;;;23.74;100.00
40650;BME280;26342;42.826;23.992;2023-06-26T11:27:32;95085.25;;;23.66;100.00
40650;BME280;26342;42.826;23.992;2023-06-26T11:29:57;95080.53;;;23.51;100.00
40650;BME280;26342;42.826;23.992;2023-06-26T11:32:26;95090.19;;;23.49;100.00
40650;BME280;26342;42.826;23.992;2023-06-26T11:34:51;95084.38;;;23.10;100.00
40650;BME280;26342;42.826;23.992;2023-06-26T11:37:17;95090.72;;;23.14;100.00
40650;BME280;26342;42.826;23.992;2023-06-26T11:39:42;95077.13;;;23.02;100.00
40650;BME280;26342;42.826;23.992;2023-06-26T11:42:10;95088.03;;;23.02;100.00
40650;BME280;26342;42.826;23.992;2023-06-26T11:44:44;95091.31;;;22.95;100.00
40650;BME280;26342;42.826;23.992;2023-06-26T11:47:16;95078.50;;;22.96;100.00
40650;BME280;26342;42.826;23.992;2023-06-26T11:49:43;95086.97;;;23.06;100.00
40650;BME280;26342;42.826;23.992;2023-06-26T11:52:09;95085.63;;;23.12;100.00
40650;BME280;26342;42.826;23.992;2023-06-26T11:54:34;95085.25;;;23.14;100.00
40650;BME280;26342;42.826;23.992;2023-06-26T11:56:59;95080.81;;;23.22;100.00
40650;BME280;26342;42.826;23.992;2023-06-26T11:59:37;95078.00;;;23.18;100.00
40650;BME280;26342;42.826;23.992;2023-06-26T12:02:07;95086.09;;;23.15;100.00
40650;BME280;26342;42.826;23.992;2023-06-26T12:04:33;95094.16;;;22.99;100.00
40650;BME280;26342;42.826;23.992;2023-06-26T12:07:01;95089.69;;;23.06;100.00
40650;BME280;26342;42.826;23.992;2023-06-26T12:09:32;95089.25;;;23.04;100.00
40650;BME280;26342;42.826;23.992;2023-06-26T12:12:02;95095.28;;;22.98;100.00
40650;BME280;26342;42.826;23.992;2023-06-26T12:14:27;95088.91;;;23.06;100.00
40650;BME280;26342;42.826;23.992;2023-06-26T12:16:53;95101.50;;;23.10;100.00
40650;BME280;26342;42.826;23.992;2023-06-26T12:19:24;95103.09;;;23.11;100.00
40650;BME280;26342;42.826;23.992;2023-06-26T12:21:50;95094.25;;;23.15;100.00
40650;BME280;26342;42.826;23.992;2023-06-26T12:24:21;95098.56;;;23.16;100.00
40650;BME280;26342;42.826;23.992;2023-06-26T12:26:52;95102.50;;;23.06;100.00
40650;BME280;26342;42.826;23.992;2023-06-26T12:29:29;95105.13;;;23.15;100.00
40650;BME280;26342;42.826;23.992;2023-06-26T12:31:54;95107.59;;;23.20;100.00
40650;BME280;26342;42.826;23.992;2023-06-26T12:34:23;95095.13;;;23.31;100.00
40650;BME280;26342;42.826;23.992;2023-06-26T12:36:50;95106.41;;;23.45;100.00
40650;BME280;26342;42.826;23.992;2023-06-26T12:39:17;95105.22;;;23.58;100.00
40650;BME280;26342;42.826;23.992;2023-06-26T12:41:52;95109.34;;;23.52;100.00
40650;BME280;26342;42.826;23.992;2023-06-26T12:46:46;95102.75;;;23.65;100.00
40650;BME280;26342;42.826;23.992;2023-06-26T12:49:12;95108.94;;;23.78;100.00
40650;BME280;26342;42.826;23.992;2023-06-26T12:51:37;95114.75;;;23.92;100.00
40650;BME280;26342;42.826;23.992;2023-06-26T12:54:05;95108.16;;;23.93;100.00
40650;BME280;26342;42.826;23.992;2023-06-26T12:56:30;95110.38;;;23.88;100.00
40650;BME280;26342;42.826;23.992;2023-06-26T12:58:56;95105.97;;;23.83;100.00
40650;BME280;26342;42.826;23.992;2023-06-26T13:01:21;95120.63;;;23.79;100.00
40650;BME280;26342;42.826;23.992;2023-06-26T13:03:49;95121.88;;;23.81;100.00
40650;BME280;26342;42.826;23.992;2023-06-26T13:06:16;95109.75;;;23.79;100.00